sensor_id;sensor_type;location;lat;lon;timestamp;temperature;humidity
12477;DHT22;6303;51.504;6.300;2023-03-08T00:01:32;19.70;53.80
12477;DHT22;6303;51.504;6.300;2023-03-08T00:04:00;19.80;53.30
12477;DHT22;6303;51.504;6.300;2023-03-08T00:06:27;19.70;53.10
12477;DHT22;6303;51.504;6.300;2023-03-08T00:08:54;19.70;53.10
12477;DHT22;6303;51.504;6.300;2023-03-08T00:11:23;19.70;53.20
12477;DHT22;6303;51.504;6.300;2023-03-08T00:13:51;19.70;53.10
12477;DHT22;6303;51.504;6.300;2023-03-08T00:16:18;19.70;53.10
12477;DHT22;6303;51.504;6.300;2023-03-08T00:18:45;19.70;53.10
12477;DHT22;6303;51.504;6.300;2023-03-08T00:21:13;19.70;53.10
12477;DHT22;6303;51.504;6.300;2023-03-08T00:23:41;19.70;52.90
12477;DHT22;6303;51.504;6.300;2023-03-08T00:26:09;19.70;53.00
12477;DHT22;6303;51.504;6.300;2023-03-08T00:28:38;19.70;53.00
12477;DHT22;6303;51.504;6.300;2023-03-08T00:31:07;19.70;53.10
12477;DHT22;6303;51.504;6.300;2023-03-08T00:33:34;19.70;53.00
12477;DHT22;6303;51.504;6.300;2023-03-08T00:36:03;19.70;53.00
12477;DHT22;6303;51.504;6.300;2023-03-08T00:38:31;19.70;52.90
12477;DHT22;6303;51.504;6.300;2023-03-08T00:40:59;19.70;52.90
12477;DHT22;6303;51.504;6.300;2023-03-08T00:43:26;19.70;52.90
12477;DHT22;6303;51.504;6.300;2023-03-08T00:45:55;19.70;52.80
12477;DHT22;6303;51.504;6.300;2023-03-08T00:48:22;19.70;52.90
12477;DHT22;6303;51.504;6.300;2023-03-08T00:50:51;19.70;52.90
12477;DHT22;6303;51.504;6.300;2023-03-08T00:53:18;19.70;52.80
12477;DHT22;6303;51.504;6.300;2023-03-08T00:55:49;19.70;52.80
12477;DHT22;6303;51.504;6.300;2023-03-08T00:58:16;19.70;52.80
12477;DHT22;6303;51.504;6.300;2023-03-08T01:00:44;19.70;52.70
12477;DHT22;6303;51.504;6.300;2023-03-08T01:03:12;19.70;52.70
12477;DHT22;6303;51.504;6.300;2023-03-08T01:05:39;19.70;52.80
12477;DHT22;6303;51.504;6.300;2023-03-08T01:08:07;19.70;52.80
12477;DHT22;6303;51.504;6.300;2023-03-08T01:10:34;19.70;52.80
12477;DHT22;6303;51.504;6.300;2023-03-08T01:13:03;19.70;52.80
12477;DHT22;6303;51.504;6.300;2023-03-08T01:15:33;19.70;52.80
12477;DHT22;6303;51.504;6.300;2023-03-08T01:18:02;19.70;53.30
12477;DHT22;6303;51.504;6.300;2023-03-08T01:20:31;19.70;52.70
12477;DHT22;6303;51.504;6.300;2023-03-08T01:22:58;19.70;52.70
12477;DHT22;6303;51.504;6.300;2023-03-08T01:25:26;19.70;52.60
12477;DHT22;6303;51.504;6.300;2023-03-08T01:27:53;19.70;52.60
12477;DHT22;6303;51.504;6.300;2023-03-08T01:30:20;19.70;52.60
12477;DHT22;6303;51.504;6.300;2023-03-08T01:32:47;19.70;52.70
12477;DHT22;6303;51.504;6.300;2023-03-08T01:35:15;19.70;52.70
12477;DHT22;6303;51.504;6.300;2023-03-08T01:37:43;19.70;52.70
12477;DHT22;6303;51.504;6.300;2023-03-08T01:40:13;19.70;52.70
12477;DHT22;6303;51.504;6.300;2023-03-08T01:42:40;19.70;52.60
12477;DHT22;6303;51.504;6.300;2023-03-08T01:48:08;19.70;52.50
12477;DHT22;6303;51.504;6.300;2023-03-08T01:50:57;19.70;52.50
12477;DHT22;6303;51.504;6.300;2023-03-08T01:53:26;19.70;52.50
12477;DHT22;6303;51.504;6.300;2023-03-08T01:55:54;19.70;52.40
12477;DHT22;6303;51.504;6.300;2023-03-08T01:58:21;19.70;52.40
12477;DHT22;6303;51.504;6.300;2023-03-08T02:00:48;19.70;52.40
12477;DHT22;6303;51.504;6.300;2023-03-08T02:03:16;19.70;52.40
12477;DHT22;6303;51.504;6.300;2023-03-08T02:05:43;19.70;52.40
12477;DHT22;6303;51.504;6.300;2023-03-08T02:08:17;19.70;52.40
12477;DHT22;6303;51.504;6.300;2023-03-08T02:10:46;19.70;52.40
12477;DHT22;6303;51.504;6.300;2023-03-08T02:13:13;19.80;52.50
12477;DHT22;6303;51.504;6.300;2023-03-08T02:15:42;19.70;52.50
12477;DHT22;6303;51.504;6.300;2023-03-08T02:18:10;19.70;52.50
12477;DHT22;6303;51.504;6.300;2023-03-08T02:20:39;19.80;52.60
12477;DHT22;6303;51.504;6.300;2023-03-08T02:23:09;19.80;52.50
12477;DHT22;6303;51.504;6.300;2023-03-08T02:25:37;19.80;52.40
12477;DHT22;6303;51.504;6.300;2023-03-08T02:28:07;19.80;52.40
12477;DHT22;6303;51.504;6.300;2023-03-08T02:30:36;19.80;52.50
12477;DHT22;6303;51.504;6.300;2023-03-08T02:33:03;19.80;52.50
12477;DHT22;6303;51.504;6.300;2023-03-08T02:35:31;19.80;52.50
12477;DHT22;6303;51.504;6.300;2023-03-08T02:37:58;19.80;52.50
12477;DHT22;6303;51.504;6.300;2023-03-08T02:40:26;19.80;52.40
12477;DHT22;6303;51.504;6.300;2023-03-08T02:42:53;19.80;52.30
12477;DHT22;6303;51.504;6.300;2023-03-08T02:45:21;19.80;52.20
12477;DHT22;6303;51.504;6.300;2023-03-08T02:47:48;19.80;52.20
12477;DHT22;6303;51.504;6.300;2023-03-08T02:50:16;19.80;52.20
12477;DHT22;6303;51.504;6.300;2023-03-08T02:52:43;19.80;52.20
12477;DHT22;6303;51.504;6.300;2023-03-08T02:55:11;19.80;52.10
12477;DHT22;6303;51.504;6.300;2023-03-08T02:57:39;19.90;52.10
12477;DHT22;6303;51.504;6.300;2023-03-08T03:00:08;19.90;52.00
12477;DHT22;6303;51.504;6.300;2023-03-08T03:02:36;19.90;52.00
12477;DHT22;6303;51.504;6.300;2023-03-08T03:05:04;19.90;52.00
12477;DHT22;6303;51.504;6.300;2023-03-08T03:07:34;19.80;51.90
12477;DHT22;6303;51.504;6.300;2023-03-08T03:10:02;19.80;51.80
12477;DHT22;6303;51.504;6.300;2023-03-08T03:12:29;19.90;51.70
12477;DHT22;6303;51.504;6.300;2023-03-08T03:14:59;19.90;51.70
12477;DHT22;6303;51.504;6.300;2023-03-08T03:17:26;19.90;51.80
12477;DHT22;6303;51.504;6.300;2023-03-08T03:19:54;19.90;51.80
12477;DHT22;6303;51.504;6.300;2023-03-08T03:22:21;19.90;51.90
12477;DHT22;6303;51.504;6.300;2023-03-08T03:24:49;19.90;51.90
12477;DHT22;6303;51.504;6.300;2023-03-08T03:27:16;19.90;51.90
12477;DHT22;6303;51.504;6.300;2023-03-08T03:29:43;19.80;51.90
12477;DHT22;6303;51.504;6.300;2023-03-08T03:32:15;19.90;52.00
12477;DHT22;6303;51.504;6.300;2023-03-08T03:34:42;19.90;52.10
12477;DHT22;6303;51.504;6.300;2023-03-08T03:37:10;19.90;52.00
12477;DHT22;6303;51.504;6.300;2023-03-08T03:39:39;19.90;52.00
12477;DHT22;6303;51.504;6.300;2023-03-08T03:42:09;19.90;52.00
12477;DHT22;6303;51.504;6.300;2023-03-08T03:44:41;19.90;52.10
12477;DHT22;6303;51.504;6.300;2023-03-08T03:47:14;19.90;52.10
12477;DHT22;6303;51.504;6.300;2023-03-08T03:49:42;19.90;52.10
12477;DHT22;6303;51.504;6.300;2023-03-08T03:52:09;19.90;52.00
12477;DHT22;6303;51.504;6.300;2023-03-08T03:54:42;19.90;52.00
12477;DHT22;6303;51.504;6.300;2023-03-08T03:57:09;19.90;52.00
12477;DHT22;6303;51.504;6.300;2023-03-08T03:59:39;19.90;52.00
12477;DHT22;6303;51.504;6.300;2023-03-08T04:02:06;19.80;51.90
12477;DHT22;6303;51.504;6.300;2023-03-08T04:04:41;19.90;52.00
12477;DHT22;6303;51.504;6.300;2023-03-08T04:07:11;19.90;51.90
12477;DHT22;6303;51.504;6.300;2023-03-08T04:09:44;19.90;52.00
12477;DHT22;6303;51.504;6.300;2023-03-08T04:12:15;19.90;51.90
12477;DHT22;6303;51.504;6.300;2023-03-08T04:14:43;19.90;51.90
12477;DHT22;6303;51.504;6.300;2023-03-08T04:17:12;19.90;51.80
12477;DHT22;6303;51.504;6.300;2023-03-08T04:19:47;19.90;51.80
12477;DHT22;6303;51.504;6.300;2023-03-08T04:22:15;19.90;51.70
12477;DHT22;6303;51.504;6.300;2023-03-08T04:24:47;19.90;51.70
12477;DHT22;6303;51.504;6.300;2023-03-08T04:27:20;19.90;51.80
12477;DHT22;6303;51.504;6.300;2023-03-08T04:29:47;19.90;51.70
12477;DHT22;6303;51.504;6.300;2023-03-08T04:32:15;19.90;51.70
12477;DHT22;6303;51.504;6.300;2023-03-08T04:34:48;19.90;51.70
12477;DHT22;6303;51.504;6.300;2023-03-08T04:37:19;19.90;51.70
12477;DHT22;6303;51.504;6.300;2023-03-08T04:39:51;19.90;51.70
12477;DHT22;6303;51.504;6.300;2023-03-08T04:42:18;19.90;51.80
12477;DHT22;6303;51.504;6.300;2023-03-08T04:44:47;19.90;51.80
12477;DHT22;6303;51.504;6.300;2023-03-08T04:47:19;19.90;51.80
12477;DHT22;6303;51.504;6.300;2023-03-08T04:49:48;19.90;51.80
12477;DHT22;6303;51.504;6.300;2023-03-08T04:52:15;19.90;51.80
12477;DHT22;6303;51.504;6.300;2023-03-08T04:54:43;19.90;51.80
12477;DHT22;6303;51.504;6.300;2023-03-08T04:57:20;19.90;51.80
12477;DHT22;6303;51.504;6.300;2023-03-08T04:59:49;19.90;51.80
12477;DHT22;6303;51.504;6.300;2023-03-08T05:02:17;19.90;51.80
12477;DHT22;6303;51.504;6.300;2023-03-08T05:04:45;19.90;51.70
12477;DHT22;6303;51.504;6.300;2023-03-08T05:07:14;19.90;51.70
12477;DHT22;6303;51.504;6.300;2023-03-08T05:09:42;19.90;51.70
12477;DHT22;6303;51.504;6.300;2023-03-08T05:12:09;19.90;51.70
12477;DHT22;6303;51.504;6.300;2023-03-08T05:14:48;19.90;51.80
12477;DHT22;6303;51.504;6.300;2023-03-08T05:17:15;19.90;52.10
12477;DHT22;6303;51.504;6.300;2023-03-08T05:19:43;19.90;52.20
12477;DHT22;6303;51.504;6.300;2023-03-08T05:22:14;19.90;52.30
12477;DHT22;6303;51.504;6.300;2023-03-08T05:24:47;19.90;52.40
12477;DHT22;6303;51.504;6.300;2023-03-08T05:27:15;19.90;52.40
12477;DHT22;6303;51.504;6.300;2023-03-08T05:29:44;19.80;52.30
12477;DHT22;6303;51.504;6.300;2023-03-08T05:32:11;19.90;52.20
12477;DHT22;6303;51.504;6.300;2023-03-08T05:34:39;19.90;52.20
12477;DHT22;6303;51.504;6.300;2023-03-08T05:37:09;19.80;51.90
12477;DHT22;6303;51.504;6.300;2023-03-08T05:39:40;19.90;51.80
12477;DHT22;6303;51.504;6.300;2023-03-08T05:42:19;19.90;51.70
12477;DHT22;6303;51.504;6.300;2023-03-08T05:44:46;19.90;51.70
12477;DHT22;6303;51.504;6.300;2023-03-08T05:47:18;19.80;51.60
12477;DHT22;6303;51.504;6.300;2023-03-08T05:49:45;19.90;51.70
12477;DHT22;6303;51.504;6.300;2023-03-08T05:52:13;19.90;51.60
12477;DHT22;6303;51.504;6.300;2023-03-08T05:54:42;19.90;51.60
12477;DHT22;6303;51.504;6.300;2023-03-08T05:57:14;19.90;51.60
12477;DHT22;6303;51.504;6.300;2023-03-08T05:59:41;19.90;51.70
12477;DHT22;6303;51.504;6.300;2023-03-08T06:02:11;19.90;51.70
12477;DHT22;6303;51.504;6.300;2023-03-08T06:04:42;19.90;51.70
12477;DHT22;6303;51.504;6.300;2023-03-08T06:07:11;19.90;51.70
12477;DHT22;6303;51.504;6.300;2023-03-08T06:09:44;19.90;51.70
12477;DHT22;6303;51.504;6.300;2023-03-08T06:12:14;19.90;51.80
12477;DHT22;6303;51.504;6.300;2023-03-08T06:14:43;19.90;52.00
12477;DHT22;6303;51.504;6.300;2023-03-08T06:17:12;19.90;52.50
12477;DHT22;6303;51.504;6.300;2023-03-08T06:19:44;19.90;52.90
12477;DHT22;6303;51.504;6.300;2023-03-08T06:22:14;19.90;53.10
12477;DHT22;6303;51.504;6.300;2023-03-08T06:24:41;19.90;53.20
12477;DHT22;6303;51.504;6.300;2023-03-08T06:27:10;19.90;53.50
12477;DHT22;6303;51.504;6.300;2023-03-08T06:29:39;19.90;53.70
12477;DHT22;6303;51.504;6.300;2023-03-08T06:32:07;19.90;53.80
12477;DHT22;6303;51.504;6.300;2023-03-08T06:34:34;19.90;53.70
12477;DHT22;6303;51.504;6.300;2023-03-08T06:37:02;19.80;53.20
12477;DHT22;6303;51.504;6.300;2023-03-08T06:39:29;19.80;52.60
12477;DHT22;6303;51.504;6.300;2023-03-08T06:41:57;19.80;52.20
12477;DHT22;6303;51.504;6.300;2023-03-08T06:44:27;19.80;51.90
12477;DHT22;6303;51.504;6.300;2023-03-08T06:46:55;19.80;51.60
12477;DHT22;6303;51.504;6.300;2023-03-08T06:49:24;19.80;51.40
12477;DHT22;6303;51.504;6.300;2023-03-08T06:51:52;19.80;51.20
12477;DHT22;6303;51.504;6.300;2023-03-08T06:54:19;19.80;50.90
12477;DHT22;6303;51.504;6.300;2023-03-08T06:56:47;19.80;50.70
12477;DHT22;6303;51.504;6.300;2023-03-08T06:59:14;19.80;50.40
12477;DHT22;6303;51.504;6.300;2023-03-08T07:01:42;19.80;50.30
12477;DHT22;6303;51.504;6.300;2023-03-08T07:04:09;19.80;50.10
12477;DHT22;6303;51.504;6.300;2023-03-08T07:06:36;19.80;50.00
12477;DHT22;6303;51.504;6.300;2023-03-08T07:09:03;19.80;49.90
12477;DHT22;6303;51.504;6.300;2023-03-08T07:11:30;19.80;49.80
12477;DHT22;6303;51.504;6.300;2023-03-08T07:13:58;19.80;49.80
12477;DHT22;6303;51.504;6.300;2023-03-08T07:16:25;19.80;49.80
12477;DHT22;6303;51.504;6.300;2023-03-08T07:18:54;19.80;49.80
12477;DHT22;6303;51.504;6.300;2023-03-08T07:21:22;19.80;49.80
12477;DHT22;6303;51.504;6.300;2023-03-08T07:23:50;19.80;49.80
12477;DHT22;6303;51.504;6.300;2023-03-08T07:26:18;19.80;49.70
12477;DHT22;6303;51.504;6.300;2023-03-08T07:28:48;19.80;50.30
12477;DHT22;6303;51.504;6.300;2023-03-08T07:31:16;19.80;49.60
12477;DHT22;6303;51.504;6.300;2023-03-08T07:33:43;19.80;49.50
12477;DHT22;6303;51.504;6.300;2023-03-08T07:36:11;19.90;49.50
12477;DHT22;6303;51.504;6.300;2023-03-08T07:38:38;19.90;49.40
12477;DHT22;6303;51.504;6.300;2023-03-08T07:41:05;19.80;49.20
12477;DHT22;6303;51.504;6.300;2023-03-08T07:43:32;19.90;49.10
12477;DHT22;6303;51.504;6.300;2023-03-08T07:46:08;19.80;48.90
12477;DHT22;6303;51.504;6.300;2023-03-08T07:48:35;19.90;48.70
12477;DHT22;6303;51.504;6.300;2023-03-08T07:51:03;19.90;48.40
12477;DHT22;6303;51.504;6.300;2023-03-08T07:53:33;19.90;48.20
12477;DHT22;6303;51.504;6.300;2023-03-08T07:56:00;19.90;48.10
12477;DHT22;6303;51.504;6.300;2023-03-08T07:58:28;19.90;48.10
12477;DHT22;6303;51.504;6.300;2023-03-08T08:00:55;19.90;47.90
12477;DHT22;6303;51.504;6.300;2023-03-08T08:03:22;19.90;47.80
12477;DHT22;6303;51.504;6.300;2023-03-08T08:05:49;19.90;47.60
12477;DHT22;6303;51.504;6.300;2023-03-08T08:08:16;19.90;47.80
12477;DHT22;6303;51.504;6.300;2023-03-08T08:10:45;19.90;48.40
12477;DHT22;6303;51.504;6.300;2023-03-08T08:13:12;19.90;48.90
12477;DHT22;6303;51.504;6.300;2023-03-08T08:15:39;19.90;49.20
12477;DHT22;6303;51.504;6.300;2023-03-08T08:18:06;19.90;49.50
12477;DHT22;6303;51.504;6.300;2023-03-08T08:20:33;19.90;49.70
12477;DHT22;6303;51.504;6.300;2023-03-08T08:23:00;19.90;49.80
12477;DHT22;6303;51.504;6.300;2023-03-08T08:25:27;19.90;50.00
12477;DHT22;6303;51.504;6.300;2023-03-08T08:27:55;19.90;50.00
12477;DHT22;6303;51.504;6.300;2023-03-08T08:30:22;19.70;50.00
12477;DHT22;6303;51.504;6.300;2023-03-08T08:32:49;19.90;50.20
12477;DHT22;6303;51.504;6.300;2023-03-08T08:35:16;19.90;50.20
12477;DHT22;6303;51.504;6.300;2023-03-08T08:37:43;19.90;50.00
12477;DHT22;6303;51.504;6.300;2023-03-08T08:40:11;20.00;50.00
12477;DHT22;6303;51.504;6.300;2023-03-08T08:42:38;20.00;50.10
12477;DHT22;6303;51.504;6.300;2023-03-08T08:45:07;20.00;50.10
12477;DHT22;6303;51.504;6.300;2023-03-08T08:47:34;20.00;50.10
12477;DHT22;6303;51.504;6.300;2023-03-08T08:50:02;20.00;50.10
12477;DHT22;6303;51.504;6.300;2023-03-08T08:52:29;19.90;50.20
12477;DHT22;6303;51.504;6.300;2023-03-08T08:54:56;20.00;50.30
12477;DHT22;6303;51.504;6.300;2023-03-08T08:57:23;20.00;50.30
12477;DHT22;6303;51.504;6.300;2023-03-08T08:59:50;20.00;50.30
12477;DHT22;6303;51.504;6.300;2023-03-08T09:02:18;20.00;50.30
12477;DHT22;6303;51.504;6.300;2023-03-08T09:04:45;19.90;50.20
12477;DHT22;6303;51.504;6.300;2023-03-08T09:07:12;20.00;50.30
12477;DHT22;6303;51.504;6.300;2023-03-08T09:09:39;20.00;50.30
12477;DHT22;6303;51.504;6.300;2023-03-08T09:12:07;20.00;50.30
12477;DHT22;6303;51.504;6.300;2023-03-08T09:14:34;20.00;50.30
12477;DHT22;6303;51.504;6.300;2023-03-08T09:17:01;20.00;50.30
12477;DHT22;6303;51.504;6.300;2023-03-08T09:19:32;20.00;50.30
12477;DHT22;6303;51.504;6.300;2023-03-08T09:22:01;20.00;50.20
12477;DHT22;6303;51.504;6.300;2023-03-08T09:24:28;20.00;50.20
12477;DHT22;6303;51.504;6.300;2023-03-08T09:26:55;20.00;50.20
12477;DHT22;6303;51.504;6.300;2023-03-08T09:29:22;20.00;50.20
12477;DHT22;6303;51.504;6.300;2023-03-08T09:31:49;20.10;50.20
12477;DHT22;6303;51.504;6.300;2023-03-08T09:34:16;20.10;50.10
12477;DHT22;6303;51.504;6.300;2023-03-08T09:36:44;20.10;50.10
12477;DHT22;6303;51.504;6.300;2023-03-08T09:39:12;20.10;50.10
12477;DHT22;6303;51.504;6.300;2023-03-08T09:41:50;20.10;50.00
12477;DHT22;6303;51.504;6.300;2023-03-08T09:44:37;20.20;50.00
12477;DHT22;6303;51.504;6.300;2023-03-08T09:47:16;20.20;50.00
12477;DHT22;6303;51.504;6.300;2023-03-08T09:49:49;20.20;50.00
12477;DHT22;6303;51.504;6.300;2023-03-08T09:52:24;20.20;49.90
12477;DHT22;6303;51.504;6.300;2023-03-08T09:54:55;20.20;49.90
12477;DHT22;6303;51.504;6.300;2023-03-08T09:57:24;20.20;49.80
12477;DHT22;6303;51.504;6.300;2023-03-08T09:59:53;20.20;49.90
12477;DHT22;6303;51.504;6.300;2023-03-08T10:02:29;20.10;49.80
12477;DHT22;6303;51.504;6.300;2023-03-08T10:05:03;20.20;49.90
12477;DHT22;6303;51.504;6.300;2023-03-08T10:07:41;20.20;49.90
12477;DHT22;6303;51.504;6.300;2023-03-08T10:10:36;20.20;49.80
12477;DHT22;6303;51.504;6.300;2023-03-08T10:13:31;20.20;49.70
12477;DHT22;6303;51.504;6.300;2023-03-08T10:16:05;20.30;49.70
12477;DHT22;6303;51.504;6.300;2023-03-08T10:18:41;20.30;49.70
12477;DHT22;6303;51.504;6.300;2023-03-08T10:21:10;20.30;49.60
12477;DHT22;6303;51.504;6.300;2023-03-08T10:23:39;20.30;49.60
12477;DHT22;6303;51.504;6.300;2023-03-08T10:26:10;20.30;49.60
12477;DHT22;6303;51.504;6.300;2023-03-08T10:28:37;20.30;49.50
12477;DHT22;6303;51.504;6.300;2023-03-08T10:31:17;20.30;49.50
12477;DHT22;6303;51.504;6.300;2023-03-08T10:33:45;20.30;49.50
12477;DHT22;6303;51.504;6.300;2023-03-08T10:36:17;20.40;49.50
12477;DHT22;6303;51.504;6.300;2023-03-08T10:39:00;20.40;49.30
12477;DHT22;6303;51.504;6.300;2023-03-08T10:41:35;20.50;49.30
12477;DHT22;6303;51.504;6.300;2023-03-08T10:44:03;20.50;49.30
12477;DHT22;6303;51.504;6.300;2023-03-08T10:46:30;20.50;49.10
12477;DHT22;6303;51.504;6.300;2023-03-08T10:49:08;20.60;49.20
12477;DHT22;6303;51.504;6.300;2023-03-08T10:51:51;20.60;49.20
12477;DHT22;6303;51.504;6.300;2023-03-08T10:54:20;20.60;49.10
12477;DHT22;6303;51.504;6.300;2023-03-08T10:56:51;20.60;49.00
12477;DHT22;6303;51.504;6.300;2023-03-08T10:59:21;20.60;49.00
12477;DHT22;6303;51.504;6.300;2023-03-08T11:01:55;20.60;49.00
12477;DHT22;6303;51.504;6.300;2023-03-08T11:04:25;20.60;49.00
12477;DHT22;6303;51.504;6.300;2023-03-08T11:06:52;20.60;49.00
12477;DHT22;6303;51.504;6.300;2023-03-08T11:09:24;20.80;48.90
12477;DHT22;6303;51.504;6.300;2023-03-08T11:11:52;20.50;48.80
12477;DHT22;6303;51.504;6.300;2023-03-08T11:14:19;20.50;48.90
12477;DHT22;6303;51.504;6.300;2023-03-08T11:17:12;20.50;49.00
12477;DHT22;6303;51.504;6.300;2023-03-08T11:19:49;20.50;49.00
12477;DHT22;6303;51.504;6.300;2023-03-08T11:22:36;20.50;49.00
12477;DHT22;6303;51.504;6.300;2023-03-08T11:25:16;20.50;49.00
12477;DHT22;6303;51.504;6.300;2023-03-08T11:27:56;20.50;49.00
12477;DHT22;6303;51.504;6.300;2023-03-08T11:30:34;20.40;49.00
12477;DHT22;6303;51.504;6.300;2023-03-08T11:33:18;20.20;48.80
12477;DHT22;6303;51.504;6.300;2023-03-08T11:35:51;20.40;49.00
12477;DHT22;6303;51.504;6.300;2023-03-08T11:38:23;20.40;49.00
12477;DHT22;6303;51.504;6.300;2023-03-08T11:41:00;20.40;49.00
12477;DHT22;6303;51.504;6.300;2023-03-08T11:43:49;20.40;49.00
12477;DHT22;6303;51.504;6.300;2023-03-08T11:46:22;20.40;49.00
12477;DHT22;6303;51.504;6.300;2023-03-08T11:51:51;20.30;49.00
12477;DHT22;6303;51.504;6.300;2023-03-08T11:54:31;20.30;49.00
12477;DHT22;6303;51.504;6.300;2023-03-08T11:57:02;20.30;49.10
12477;DHT22;6303;51.504;6.300;2023-03-08T11:59:33;20.30;49.10
12477;DHT22;6303;51.504;6.300;2023-03-08T12:02:10;20.30;49.10
12477;DHT22;6303;51.504;6.300;2023-03-08T12:04:45;20.30;49.20
12477;DHT22;6303;51.504;6.300;2023-03-08T12:07:18;20.30;49.20
12477;DHT22;6303;51.504;6.300;2023-03-08T12:09:54;20.30;49.10
12477;DHT22;6303;51.504;6.300;2023-03-08T12:12:28;20.30;49.10
12477;DHT22;6303;51.504;6.300;2023-03-08T12:14:59;20.30;49.10
12477;DHT22;6303;51.504;6.300;2023-03-08T12:17:31;20.20;49.20
12477;DHT22;6303;51.504;6.300;2023-03-08T12:20:00;20.30;49.30
12477;DHT22;6303;51.504;6.300;2023-03-08T12:22:43;20.30;49.30
12477;DHT22;6303;51.504;6.300;2023-03-08T12:25:19;20.30;49.30
12477;DHT22;6303;51.504;6.300;2023-03-08T12:27:54;20.30;49.20
12477;DHT22;6303;51.504;6.300;2023-03-08T12:30:32;20.30;49.20
12477;DHT22;6303;51.504;6.300;2023-03-08T12:33:02;20.30;49.10
12477;DHT22;6303;51.504;6.300;2023-03-08T12:35:31;20.30;49.10
12477;DHT22;6303;51.504;6.300;2023-03-08T12:37:59;20.30;49.10
12477;DHT22;6303;51.504;6.300;2023-03-08T12:40:36;20.30;49.00
12477;DHT22;6303;51.504;6.300;2023-03-08T12:43:08;20.30;49.00
12477;DHT22;6303;51.504;6.300;2023-03-08T12:45:36;20.30;49.00
12477;DHT22;6303;51.504;6.300;2023-03-08T12:48:17;20.30;49.00
12477;DHT22;6303;51.504;6.300;2023-03-08T12:51:00;20.30;49.00
12477;DHT22;6303;51.504;6.300;2023-03-08T12:53:37;20.30;49.00
12477;DHT22;6303;51.504;6.300;2023-03-08T12:56:24;20.30;49.00
12477;DHT22;6303;51.504;6.300;2023-03-08T12:58:55;20.30;48.90
12477;DHT22;6303;51.504;6.300;2023-03-08T13:01:35;20.30;48.80
12477;DHT22;6303;51.504;6.300;2023-03-08T13:04:04;20.40;48.90
12477;DHT22;6303;51.504;6.300;2023-03-08T13:07:07;20.40;48.80
12477;DHT22;6303;51.504;6.300;2023-03-08T13:09:42;20.40;48.70
12477;DHT22;6303;51.504;6.300;2023-03-08T13:12:21;20.40;48.70
12477;DHT22;6303;51.504;6.300;2023-03-08T13:15:06;20.40;48.70
12477;DHT22;6303;51.504;6.300;2023-03-08T13:17:37;20.40;48.70
12477;DHT22;6303;51.504;6.300;2023-03-08T13:20:14;20.40;48.70
12477;DHT22;6303;51.504;6.300;2023-03-08T13:22:56;20.40;48.70
12477;DHT22;6303;51.504;6.300;2023-03-08T13:25:49;20.40;48.70
12477;DHT22;6303;51.504;6.300;2023-03-08T13:28:19;20.40;48.70
12477;DHT22;6303;51.504;6.300;2023-03-08T13:30:50;20.40;48.70
12477;DHT22;6303;51.504;6.300;2023-03-08T13:33:20;20.40;48.80
12477;DHT22;6303;51.504;6.300;2023-03-08T13:35:55;20.30;48.70
12477;DHT22;6303;51.504;6.300;2023-03-08T13:38:24;20.40;48.70
12477;DHT22;6303;51.504;6.300;2023-03-08T13:40:53;20.40;48.70
12477;DHT22;6303;51.504;6.300;2023-03-08T13:43:21;20.40;48.70
12477;DHT22;6303;51.504;6.300;2023-03-08T13:45:52;20.40;48.70
12477;DHT22;6303;51.504;6.300;2023-03-08T13:48:20;20.40;48.70
12477;DHT22;6303;51.504;6.300;2023-03-08T13:50:50;20.30;48.60
12477;DHT22;6303;51.504;6.300;2023-03-08T13:53:20;20.30;48.60
12477;DHT22;6303;51.504;6.300;2023-03-08T13:55:49;20.30;48.60
12477;DHT22;6303;51.504;6.300;2023-03-08T13:58:27;20.40;48.60
12477;DHT22;6303;51.504;6.300;2023-03-08T14:00:59;20.30;48.60
12477;DHT22;6303;51.504;6.300;2023-03-08T14:03:28;20.30;48.60
12477;DHT22;6303;51.504;6.300;2023-03-08T14:05:56;20.30;48.60
12477;DHT22;6303;51.504;6.300;2023-03-08T14:11:14;20.30;48.60
12477;DHT22;6303;51.504;6.300;2023-03-08T14:13:45;20.30;48.50
12477;DHT22;6303;51.504;6.300;2023-03-08T14:16:26;20.30;48.60
12477;DHT22;6303;51.504;6.300;2023-03-08T14:18:54;20.30;48.60
12477;DHT22;6303;51.504;6.300;2023-03-08T14:21:24;20.30;48.60
12477;DHT22;6303;51.504;6.300;2023-03-08T14:23:52;20.30;48.60
12477;DHT22;6303;51.504;6.300;2023-03-08T14:26:26;20.20;48.70
12477;DHT22;6303;51.504;6.300;2023-03-08T14:29:12;20.20;48.70
12477;DHT22;6303;51.504;6.300;2023-03-08T14:31:53;20.30;48.80
12477;DHT22;6303;51.504;6.300;2023-03-08T14:34:21;20.20;48.80
12477;DHT22;6303;51.504;6.300;2023-03-08T14:36:53;20.20;48.80
12477;DHT22;6303;51.504;6.300;2023-03-08T14:39:22;20.20;48.80
12477;DHT22;6303;51.504;6.300;2023-03-08T14:41:50;20.20;48.80
12477;DHT22;6303;51.504;6.300;2023-03-08T14:44:20;20.20;48.80
12477;DHT22;6303;51.504;6.300;2023-03-08T14:46:48;20.20;48.80
12477;DHT22;6303;51.504;6.300;2023-03-08T14:49:26;20.20;48.80
12477;DHT22;6303;51.504;6.300;2023-03-08T14:51:53;20.20;48.70
12477;DHT22;6303;51.504;6.300;2023-03-08T14:54:27;20.20;48.70
12477;DHT22;6303;51.504;6.300;2023-03-08T14:56:55;20.20;48.80
12477;DHT22;6303;51.504;6.300;2023-03-08T14:59:22;20.20;48.80
12477;DHT22;6303;51.504;6.300;2023-03-08T15:01:50;20.20;48.80
12477;DHT22;6303;51.504;6.300;2023-03-08T15:04:19;20.20;48.70
12477;DHT22;6303;51.504;6.300;2023-03-08T15:06:49;20.20;48.80
12477;DHT22;6303;51.504;6.300;2023-03-08T15:09:18;20.20;48.70
12477;DHT22;6303;51.504;6.300;2023-03-08T15:11:47;20.20;48.70
12477;DHT22;6303;51.504;6.300;2023-03-08T15:14:16;20.20;48.80
12477;DHT22;6303;51.504;6.300;2023-03-08T15:16:43;20.10;48.70
12477;DHT22;6303;51.504;6.300;2023-03-08T15:19:10;20.10;48.80
12477;DHT22;6303;51.504;6.300;2023-03-08T15:21:38;20.20;48.80
12477;DHT22;6303;51.504;6.300;2023-03-08T15:24:12;20.20;48.80
12477;DHT22;6303;51.504;6.300;2023-03-08T15:26:40;20.20;48.80
12477;DHT22;6303;51.504;6.300;2023-03-08T15:29:17;20.20;48.80
12477;DHT22;6303;51.504;6.300;2023-03-08T15:31:45;20.10;48.70
12477;DHT22;6303;51.504;6.300;2023-03-08T15:34:12;20.20;48.80
12477;DHT22;6303;51.504;6.300;2023-03-08T15:36:39;20.20;48.80
12477;DHT22;6303;51.504;6.300;2023-03-08T15:39:09;20.10;48.80
12477;DHT22;6303;51.504;6.300;2023-03-08T15:41:37;20.20;48.80
12477;DHT22;6303;51.504;6.300;2023-03-08T15:44:04;20.20;48.80
12477;DHT22;6303;51.504;6.300;2023-03-08T15:46:31;20.20;48.80
12477;DHT22;6303;51.504;6.300;2023-03-08T15:48:58;20.20;48.80
12477;DHT22;6303;51.504;6.300;2023-03-08T15:51:30;20.20;48.80
12477;DHT22;6303;51.504;6.300;2023-03-08T15:53:57;20.20;48.90
12477;DHT22;6303;51.504;6.300;2023-03-08T15:56:25;20.20;49.00
12477;DHT22;6303;51.504;6.300;2023-03-08T15:58:53;20.20;49.00
12477;DHT22;6303;51.504;6.300;2023-03-08T16:01:21;20.20;49.10
12477;DHT22;6303;51.504;6.300;2023-03-08T16:03:51;20.10;49.00
12477;DHT22;6303;51.504;6.300;2023-03-08T16:06:19;20.10;49.00
12477;DHT22;6303;51.504;6.300;2023-03-08T16:08:46;20.10;49.00
12477;DHT22;6303;51.504;6.300;2023-03-08T16:11:15;20.10;49.10
12477;DHT22;6303;51.504;6.300;2023-03-08T16:13:43;20.10;49.10